createdAt,value
2023-05-16T00:02:26.888Z,100086.56
2023-05-16T00:05:07.994Z,100089.16
2023-05-16T00:07:47.610Z,100083.94
2023-05-16T00:10:16.589Z,100081.28
2023-05-16T00:30:41.953Z,100049.53
2023-05-16T00:33:47.630Z,100045.25
2023-05-16T00:36:16.114Z,100029.69
2023-05-16T00:38:45.932Z,100031.47
2023-05-16T00:41:43.846Z,100028.03
2023-05-16T00:44:12.689Z,100025.41
2023-05-16T00:46:45.676Z,100023.75
2023-05-16T00:53:14.770Z,100015.09
2023-05-16T00:59:37.996Z,100013.41
2023-05-16T01:02:07.228Z,100014.25
2023-05-16T01:10:05.528Z,100005.66
2023-05-16T01:13:07.580Z,100003.06
2023-05-16T01:16:14.643Z,100006.53
2023-05-16T01:19:04.837Z,100004.78
2023-05-16T01:22:16.413Z,100008.25
2023-05-16T01:25:26.916Z,99997.84
2023-05-16T01:27:57.770Z,99998.75
2023-05-16T01:30:47.868Z,99997.91
2023-05-16T01:33:16.189Z,99999.72
2023-05-16T02:13:47.913Z,99939.13
2023-05-16T02:50:25.749Z,99923.97
2023-05-16T02:59:13.366Z,99909.84
2023-05-16T03:25:00.850Z,99885.59
2023-05-16T03:27:29.093Z,99889.94
2023-05-16T03:35:24.786Z,99876.13
2023-05-16T03:40:28.680Z,99867.44
2023-05-16T04:43:09.978Z,99876.50
2023-05-16T04:45:38.828Z,99886.06
2023-05-16T04:48:27.507Z,99878.25
2023-05-16T04:51:20.266Z,99877.41
2023-05-16T04:53:51.689Z,99876.59
2023-05-16T04:56:41.383Z,99879.16
2023-05-16T04:59:10.506Z,99892.16
2023-05-16T05:01:42.279Z,99885.22
2023-05-16T05:04:11.670Z,99889.56
2023-05-16T05:22:12.692Z,99908.53
2023-05-16T05:24:40.401Z,99899.91
2023-05-16T05:27:08.285Z,99893.91
2023-05-16T05:29:35.762Z,99895.66
2023-05-16T05:32:09.215Z,99874.88
2023-05-16T05:34:42.608Z,99874.84
2023-05-16T05:37:10.423Z,99873.91
2023-05-16T05:39:38.653Z,99864.41
2023-05-16T05:42:07.252Z,99870.47
2023-05-16T05:44:35.793Z,99867.97
2023-05-16T05:48:00.070Z,99872.25
2023-05-16T05:50:27.970Z,99884.47
2023-05-16T05:52:56.694Z,99881.09
2023-05-16T05:55:24.870Z,99875.91
2023-05-16T05:58:07.031Z,99874.25
2023-05-16T06:00:52.269Z,99866.50
2023-05-16T06:03:21.666Z,99876.03
2023-05-16T06:05:49.213Z,99881.25
2023-05-16T06:08:17.064Z,99876.91
2023-05-16T06:10:45.898Z,99882.97
2023-05-16T06:13:14.734Z,99873.38
2023-05-16T06:15:43.406Z,99858.63
2023-05-16T06:18:14.075Z,99858.56
2023-05-16T06:20:42.707Z,99847.28
2023-05-16T06:23:10.696Z,99855.88
2023-05-16T06:28:44.429Z,99869.81
2023-05-16T06:31:15.450Z,99863.84
2023-05-16T06:37:17.554Z,99870.03
2023-05-16T06:40:54.786Z,99877.78
2023-05-16T06:43:45.014Z,99872.53
2023-05-16T06:46:16.665Z,99877.66
2023-05-16T06:48:45.029Z,99881.94
2023-05-16T06:51:34.584Z,99883.59
2023-05-16T06:54:15.111Z,99888.72
2023-05-16T06:59:56.294Z,99891.06
2023-05-16T07:06:09.131Z,99885.69
2023-05-16T07:08:37.139Z,99883.78
2023-05-16T07:11:05.681Z,99899.13
2023-05-16T07:14:03.666Z,99888.47
2023-05-16T07:16:34.118Z,99885.75
2023-05-16T07:22:20.315Z,99894.31
2023-05-16T07:28:45.477Z,99888.50
2023-05-16T07:33:55.845Z,99920.44
2023-05-16T07:40:44.713Z,99921.34
2023-05-16T07:43:24.695Z,99933.53
2023-05-16T07:46:18.208Z,99941.38
2023-05-16T07:48:45.711Z,99941.47
2023-05-16T07:51:16.461Z,99945.88
2023-05-16T07:53:43.998Z,99942.56
2023-05-16T07:56:11.980Z,99944.34
2023-05-16T07:59:11.085Z,99941.81
2023-05-16T08:01:54.753Z,99931.50
2023-05-16T08:04:44.531Z,99929.81
2023-05-16T08:24:29.814Z,99951.41
2023-05-16T08:27:20.389Z,99955.66
2023-05-16T08:30:11.358Z,99960.00
2023-05-16T08:32:39.897Z,99961.72
2023-05-16T08:38:59.802Z,99953.06
2023-05-16T08:41:47.297Z,99938.34
2023-05-16T08:51:39.320Z,99953.06
2023-05-16T08:57:49.099Z,99946.94
2023-05-16T09:06:29.882Z,99927.81
2023-05-16T09:16:05.834Z,99910.63
2023-05-16T09:18:48.397Z,99897.78
2023-05-16T09:21:52.447Z,99903.00
2023-05-16T09:24:20.789Z,99899.59
2023-05-16T09:26:51.893Z,99904.75
2023-05-16T09:29:19.743Z,99907.28
2023-05-16T09:31:47.736Z,99914.28
2023-05-16T09:37:27.584Z,99902.31
2023-05-16T09:39:56.580Z,99885.09
2023-05-16T09:49:15.447Z,99895.59
2023-05-16T09:51:43.079Z,99885.09
2023-05-16T09:54:10.684Z,99890.25
2023-05-16T09:56:50.764Z,99882.31
2023-05-16T10:03:04.735Z,99883.38
2023-05-16T10:05:33.252Z,99890.03
2023-05-16T10:08:00.630Z,99889.78
2023-05-16T10:10:28.618Z,99896.72
2023-05-16T10:12:59.340Z,99899.16
2023-05-16T10:15:30.596Z,99901.63
2023-05-16T10:18:11.820Z,99894.22
2023-05-16T10:21:21.929Z,99897.03
2023-05-16T10:23:50.906Z,99902.53
2023-05-16T10:42:29.009Z,99912.13
2023-05-16T10:45:21.111Z,99912.47
2023-05-16T10:53:43.356Z,99922.91
2023-05-16T10:56:15.029Z,99924.88
2023-05-16T10:58:45.304Z,99931.06
2023-05-16T11:01:30.132Z,99919.78
2023-05-16T11:04:11.997Z,99912.25
2023-05-16T11:06:41.966Z,99915.06
2023-05-16T11:09:11.652Z,99907.25
2023-05-16T11:11:53.926Z,99906.22
2023-05-16T11:14:22.836Z,99908.69
2023-05-16T11:17:13.769Z,99904.00
2023-05-16T11:19:59.993Z,99906.09
2023-05-16T11:22:50.641Z,99918.84
2023-05-16T11:25:18.667Z,99917.03
2023-05-16T11:27:47.436Z,99917.00
2023-05-16T11:30:22.117Z,99912.59
2023-05-16T11:32:50.645Z,99909.78
2023-05-16T11:35:19.376Z,99902.63
2023-05-16T11:37:47.939Z,99905.09
2023-05-16T11:40:17.163Z,99911.75
2023-05-16T11:42:45.958Z,99900.47
2023-05-16T11:45:16.512Z,99896.09
2023-05-16T11:47:45.244Z,99889.34
2023-05-16T11:50:18.461Z,99879.06
2023-05-16T12:30:32.653Z,99853.84
2023-05-16T12:45:06.890Z,99857.19
2023-05-16T12:54:05.789Z,99851.25
2023-05-16T12:56:37.805Z,99860.88
2023-05-16T12:59:16.209Z,99855.28
2023-05-16T13:01:44.580Z,99854.13
2023-05-16T13:04:17.736Z,99860.59
2023-05-16T13:09:21.697Z,99855.56
2023-05-16T13:11:49.657Z,99862.56
2023-05-16T13:14:20.724Z,99857.88
2023-05-16T13:16:48.566Z,99857.66
2023-05-16T13:19:16.629Z,99848.63
2023-05-16T13:21:44.586Z,99850.31
2023-05-16T13:24:12.422Z,99849.09
2023-05-16T13:26:47.891Z,99846.56
2023-05-16T13:29:15.862Z,99847.78
2023-05-16T13:31:44.866Z,99849.09
2023-05-16T13:34:13.037Z,99857.63
2023-05-16T13:36:53.959Z,99854.19
2023-05-16T13:39:32.607Z,99842.53
2023-05-16T13:42:00.632Z,99842.88
2023-05-16T13:44:28.681Z,99856.19
2023-05-16T13:46:56.780Z,99852.63
2023-05-16T13:49:27.578Z,99851.81
2023-05-16T13:51:55.774Z,99846.59
2023-05-16T13:54:24.061Z,99851.81
2023-05-16T13:56:52.015Z,99850.97
2023-05-16T13:59:32.025Z,99851.91
2023-05-16T14:02:06.072Z,99851.47
2023-05-16T14:04:33.788Z,99856.53
2023-05-16T14:07:01.748Z,99850.16
2023-05-16T14:09:29.660Z,99857.81
2023-05-16T14:11:57.562Z,99858.31
2023-05-16T14:14:25.140Z,99855.47
2023-05-16T14:16:53.323Z,99857.47
2023-05-16T14:19:21.241Z,99858.59
2023-05-16T14:21:49.315Z,99863.28
2023-05-16T14:24:17.156Z,99859.06
2023-05-16T14:26:44.983Z,99863.06
2023-05-16T14:29:13.426Z,99861.34
2023-05-16T14:31:41.759Z,99863.16
2023-05-16T14:34:09.779Z,99867.56
2023-05-16T14:36:37.938Z,99862.53
2023-05-16T14:39:06.269Z,99865.28
2023-05-16T14:41:34.495Z,99869.66
2023-05-16T14:44:01.627Z,99863.28
2023-05-16T14:46:34.896Z,99865.28
2023-05-16T14:49:01.971Z,99864.50
2023-05-16T14:51:29.652Z,99858.75
2023-05-16T14:53:57.327Z,99868.38
2023-05-16T14:56:26.971Z,99868.44
2023-05-16T14:58:55.126Z,99867.88
2023-05-16T15:01:22.996Z,99863.44
2023-05-16T15:03:55.733Z,99868.84
2023-05-16T15:06:24.780Z,99865.66
2023-05-16T15:08:52.825Z,99867.31
2023-05-16T15:11:21.662Z,99867.28
2023-05-16T15:13:49.667Z,99860.53
2023-05-16T15:16:17.382Z,99868.38
2023-05-16T15:18:45.422Z,99861.03
2023-05-16T15:21:13.128Z,99866.28
2023-05-16T15:23:41.708Z,99863.44
2023-05-16T15:26:09.887Z,99869.41
2023-05-16T15:28:37.589Z,99877.00
2023-05-16T15:31:05.894Z,99867.72
2023-05-16T15:33:33.540Z,99871.69
2023-05-16T15:36:01.808Z,99869.22
2023-05-16T15:38:29.364Z,99867.19
2023-05-16T15:41:13.591Z,99869.34
2023-05-16T15:43:45.095Z,99879.22
2023-05-16T15:46:13.249Z,99876.75
2023-05-16T15:48:42.904Z,99874.31
2023-05-16T15:51:10.815Z,99874.41
2023-05-16T15:53:38.325Z,99875.28
2023-05-16T15:56:08.060Z,99875.13
2023-05-16T15:58:36.202Z,99878.78
2023-05-16T16:01:05.037Z,99878.81
2023-05-16T16:03:33.169Z,99876.56
2023-05-16T16:06:01.112Z,99886.66
2023-05-16T16:08:28.701Z,99892.25
2023-05-16T16:10:56.719Z,99883.94
2023-05-16T16:13:24.408Z,99882.47
2023-05-16T16:15:52.211Z,99885.44
2023-05-16T16:18:19.815Z,99888.34
2023-05-16T16:20:47.693Z,99887.63
2023-05-16T16:23:15.284Z,99886.06
2023-05-16T16:25:43.409Z,99887.88
2023-05-16T16:28:10.966Z,99885.38
2023-05-16T16:30:38.539Z,99884.56
2023-05-16T16:33:06.589Z,99885.44
2023-05-16T16:35:34.414Z,99889.09
2023-05-16T16:38:06.966Z,99885.66
2023-05-16T16:40:35.658Z,99896.16
2023-05-16T16:43:06.016Z,99894.47
2023-05-16T16:45:34.150Z,99890.13
2023-05-16T16:48:01.743Z,99899.81
2023-05-16T16:50:30.361Z,99900.84
2023-05-16T16:53:01.323Z,99901.81
2023-05-16T16:55:30.005Z,99901.09
2023-05-16T16:57:58.341Z,99901.13
2023-05-16T17:00:26.268Z,99910.78
2023-05-16T17:02:54.283Z,99914.41
2023-05-16T17:05:22.108Z,99915.38
2023-05-16T17:07:49.762Z,99921.56
2023-05-16T17:10:17.883Z,99916.53
2023-05-16T17:12:49.293Z,99922.69
2023-05-16T17:15:19.854Z,99921.00
2023-05-16T17:17:49.668Z,99919.38
2023-05-16T17:20:17.161Z,99922.22
2023-05-16T17:22:46.178Z,99925.75
2023-05-16T17:25:14.192Z,99924.84
2023-05-16T17:27:41.774Z,99930.19
2023-05-16T17:30:11.367Z,99932.03
2023-05-16T17:32:39.808Z,99926.03
2023-05-16T17:35:08.457Z,99937.47
2023-05-16T17:37:36.406Z,99933.09
2023-05-16T17:40:06.154Z,99928.84
2023-05-16T17:42:34.105Z,99938.47
2023-05-16T17:45:04.405Z,99936.88
2023-05-16T17:47:31.989Z,99940.41
2023-05-16T17:49:59.671Z,99946.59
2023-05-16T17:52:27.406Z,99948.41
2023-05-16T17:54:55.356Z,99957.22
2023-05-16T17:57:23.422Z,99965.97
2023-05-16T17:59:50.992Z,99968.72
2023-05-16T18:02:18.863Z,99974.91
2023-05-16T18:04:48.188Z,99976.78
2023-05-16T18:07:15.997Z,99984.63
2023-05-16T18:09:44.114Z,99978.72
2023-05-16T18:12:11.666Z,99977.16
2023-05-16T18:14:39.318Z,99978.13
2023-05-16T18:17:08.529Z,99985.22
2023-05-16T18:19:36.149Z,100006.09
2023-05-16T18:22:07.115Z,100009.59
2023-05-16T18:24:34.976Z,100014.78
2023-05-16T18:27:03.309Z,100014.78
2023-05-16T18:29:31.069Z,100023.44
2023-05-16T18:32:00.203Z,100027.78
2023-05-16T18:34:27.776Z,100023.50
2023-05-16T18:36:55.368Z,100026.97
2023-05-16T18:39:23.160Z,100027.03
2023-05-16T18:41:50.327Z,100033.19
2023-05-16T18:44:18.044Z,100027.16
2023-05-16T18:46:46.642Z,100027.19
2023-05-16T18:49:14.522Z,100030.72
2023-05-16T18:51:41.732Z,100034.16
2023-05-16T18:54:09.382Z,100030.84
2023-05-16T18:56:37.188Z,100040.50
2023-05-16T18:59:05.279Z,100041.44
2023-05-16T19:01:32.991Z,100047.59
2023-05-16T19:04:00.759Z,100049.38
2023-05-16T19:06:28.731Z,100058.94
2023-05-16T19:08:56.318Z,100062.44
2023-05-16T19:11:23.821Z,100057.22
2023-05-16T19:13:52.106Z,100059.00
2023-05-16T19:16:20.740Z,100067.66
2023-05-16T19:18:48.780Z,100059.88
2023-05-16T19:21:17.117Z,100057.25
2023-05-16T19:23:46.114Z,100065.94
2023-05-16T19:26:13.833Z,100068.56
2023-05-16T19:28:42.690Z,100067.72
2023-05-16T19:31:11.236Z,100068.66
2023-05-16T19:33:39.118Z,100076.47
2023-05-16T19:36:08.612Z,100069.53
2023-05-16T19:38:36.198Z,100076.50
2023-05-16T19:41:04.840Z,100073.00
2023-05-16T19:43:32.773Z,100073.94
2023-05-16T19:46:04.462Z,100073.09
2023-05-16T19:48:32.361Z,100086.94
2023-05-16T19:51:00.391Z,100096.50
2023-05-16T19:53:28.276Z,100084.38
2023-05-16T19:55:55.868Z,100092.16
2023-05-16T19:58:24.149Z,100086.13
2023-05-16T20:00:51.645Z,100091.34
2023-05-16T20:03:19.840Z,100095.66
2023-05-16T20:05:47.435Z,100093.94
2023-05-16T20:08:15.858Z,100106.94
2023-05-16T20:10:44.457Z,100100.06
2023-05-16T20:13:12.480Z,100108.75
2023-05-16T20:15:40.600Z,100114.00
2023-05-16T20:18:08.637Z,100117.44
2023-05-16T20:20:36.783Z,100115.72
2023-05-16T20:23:05.269Z,100118.34
2023-05-16T20:25:32.998Z,100126.16
2023-05-16T20:28:00.656Z,100117.50
2023-05-16T20:30:28.385Z,100132.19
2023-05-16T20:32:56.496Z,100134.75
2023-05-16T20:35:24.979Z,100129.59
2023-05-16T20:37:53.342Z,100135.59
2023-05-16T20:40:23.050Z,100145.09
2023-05-16T20:42:50.679Z,100136.50
2023-05-16T20:45:18.499Z,100126.94
2023-05-16T20:47:47.866Z,100127.81
2023-05-16T20:50:15.550Z,100123.50
2023-05-16T20:52:43.465Z,100120.03
2023-05-16T20:55:11.809Z,100122.59
2023-05-16T20:57:41.711Z,100117.38
2023-05-16T21:00:12.778Z,100107.03
2023-05-16T21:02:40.366Z,100109.63
2023-05-16T21:05:24.236Z,100111.34
2023-05-16T21:07:53.653Z,100107.88
2023-05-16T21:10:22.038Z,100103.56
2023-05-16T21:12:50.299Z,100104.44
2023-05-16T21:15:17.872Z,100110.47
2023-05-16T21:17:45.912Z,100112.97
2023-05-16T21:20:14.216Z,100116.50
2023-05-16T21:22:42.666Z,100117.34
2023-05-16T21:25:10.865Z,100118.25
2023-05-16T21:27:38.463Z,100116.50
2023-05-16T21:30:07.910Z,100116.47
2023-05-16T21:32:35.865Z,100119.88
2023-05-16T21:35:04.851Z,100123.41
2023-05-16T21:37:34.936Z,100119.06
2023-05-16T21:40:02.551Z,100124.25
2023-05-16T21:42:30.504Z,100122.50
2023-05-16T21:44:58.423Z,100126.00
2023-05-16T21:47:26.418Z,100120.00
2023-05-16T21:49:54.292Z,100126.91
2023-05-16T21:52:21.909Z,100130.34
2023-05-16T21:54:51.864Z,100129.47
2023-05-16T21:57:19.861Z,100128.63
2023-05-16T21:59:50.566Z,100134.66
2023-05-16T22:02:22.866Z,100139.84
2023-05-16T22:04:50.514Z,100141.56
2023-05-16T22:07:18.745Z,100139.00
2023-05-16T22:09:50.724Z,100145.94
2023-05-16T22:12:18.862Z,100144.19
2023-05-16T22:14:46.524Z,100158.91
2023-05-16T22:17:14.550Z,100160.66
2023-05-16T22:19:45.652Z,100160.66
2023-05-16T22:22:13.631Z,100163.25
2023-05-16T22:24:41.511Z,100166.69
2023-05-16T22:27:09.388Z,100173.59
2023-05-16T22:29:40.316Z,100181.41
2023-05-16T22:32:08.969Z,100190.91
2023-05-16T22:34:39.496Z,100187.50
2023-05-16T22:37:10.483Z,100180.59
2023-05-16T22:39:38.057Z,100182.31
2023-05-16T22:42:06.626Z,100175.38
2023-05-16T22:44:34.624Z,100190.06
2023-05-16T22:47:02.050Z,100174.47
2023-05-16T22:49:29.632Z,100170.19
2023-05-16T22:51:57.657Z,100169.31
2023-05-16T22:54:27.818Z,100163.25
2023-05-16T22:56:55.610Z,100156.34
2023-05-16T22:59:23.585Z,100151.16
2023-05-16T23:01:51.491Z,100149.44
2023-05-16T23:04:19.557Z,100145.97
2023-05-16T23:06:47.515Z,100138.19
2023-05-16T23:09:15.376Z,100139.00
2023-05-16T23:11:43.361Z,100125.19
2023-05-16T23:14:13.588Z,100142.47
2023-05-16T23:16:41.595Z,100143.34
2023-05-16T23:19:09.805Z,100147.69
2023-05-16T23:21:37.633Z,100159.81
2023-05-16T23:24:06.341Z,100160.66
2023-05-16T23:26:33.922Z,100158.09
2023-05-16T23:29:01.950Z,100166.72
2023-05-16T23:31:29.898Z,100163.28
2023-05-16T23:33:57.894Z,100164.16
2023-05-16T23:36:25.550Z,100174.56
2023-05-16T23:38:53.634Z,100173.69
2023-05-16T23:41:21.699Z,100179.72
2023-05-16T23:43:49.721Z,100183.19
2023-05-16T23:46:17.951Z,100183.19
2023-05-16T23:48:46.008Z,100173.69
2023-05-16T23:51:14.048Z,100180.59
2023-05-16T23:53:42.098Z,100175.41
2023-05-16T23:56:09.749Z,100175.41
2023-05-16T23:58:37.596Z,100174.56
